createdAt,value
2016-08-25T00:00:51.353Z,17.95
2016-08-25T00:01:52.057Z,17.95
2016-08-25T00:02:52.065Z,17.9
2016-08-25T00:03:51.352Z,17.86
2016-08-25T00:04:51.353Z,17.84
2016-08-25T00:05:52.062Z,17.68
2016-08-25T00:06:52.065Z,17.69
2016-08-25T00:07:52.061Z,17.65
2016-08-25T00:08:51.357Z,17.63
2016-08-25T00:09:52.065Z,17.6
2016-08-25T00:10:52.065Z,17.69
2016-08-25T00:11:51.369Z,17.53
2016-08-25T00:12:52.088Z,17.57
2016-08-25T00:13:51.369Z,17.52
2016-08-25T00:15:18.718Z,17.46
2016-08-25T00:15:59.166Z,17.38
2016-08-25T00:16:52.710Z,17.34
2016-08-25T00:17:52.113Z,17.31
2016-08-25T00:18:55.545Z,17.35
2016-08-25T00:19:52.522Z,17.32
2016-08-25T00:20:52.297Z,17.27
2016-08-25T00:21:53.338Z,17.24
2016-08-25T00:22:53.134Z,17.22
2016-08-25T00:23:52.858Z,17.09
2016-08-25T00:25:26.490Z,17.09
2016-08-25T00:25:52.074Z,17.02
2016-08-25T00:26:52.078Z,16.98
2016-08-25T00:27:51.373Z,16.97
2016-08-25T00:29:23.126Z,16.89
2016-08-25T00:29:54.139Z,16.84
2016-08-25T00:30:52.350Z,16.73
2016-08-25T00:31:55.729Z,16.76
2016-08-25T00:32:52.222Z,16.74
2016-08-25T00:33:52.310Z,16.73
2016-08-25T00:34:52.210Z,16.72
2016-08-25T00:35:52.211Z,16.69
2016-08-25T00:36:52.210Z,16.66
2016-08-25T00:37:51.490Z,16.68
2016-08-25T00:38:52.210Z,16.59
2016-08-25T00:39:51.494Z,16.76
2016-08-25T00:40:52.214Z,16.59
2016-08-25T00:41:52.214Z,16.65
2016-08-25T00:42:52.214Z,16.61
2016-08-25T00:43:51.494Z,16.55
2016-08-25T00:44:52.215Z,16.55
2016-08-25T00:45:52.215Z,16.61
2016-08-25T00:46:52.219Z,16.55
2016-08-25T00:47:51.498Z,16.62
2016-08-25T00:48:50.779Z,16.61
2016-08-25T00:49:52.219Z,16.49
2016-08-25T00:50:52.218Z,16.47
2016-08-25T00:51:52.219Z,16.49
2016-08-25T00:52:52.219Z,16.49
2016-08-25T00:53:52.219Z,16.44
2016-08-25T00:54:52.219Z,16.4
2016-08-25T00:55:52.095Z,16.39
2016-08-25T00:56:52.103Z,16.36
2016-08-25T00:57:51.395Z,16.26
2016-08-25T00:58:52.094Z,16.21
2016-08-25T00:59:52.095Z,16.09
2016-08-25T01:00:52.108Z,16.12
2016-08-25T01:01:52.103Z,16.08
2016-08-25T01:02:52.100Z,16.02
2016-08-25T01:03:51.394Z,16.02
2016-08-25T01:04:51.400Z,15.94
2016-08-25T01:05:52.103Z,15.92
2016-08-25T01:06:52.103Z,15.85
2016-08-25T01:07:52.103Z,15.81
2016-08-25T01:08:52.104Z,15.83
2016-08-25T01:09:52.099Z,15.76
2016-08-25T01:10:52.104Z,15.85
2016-08-25T01:11:51.403Z,15.76
2016-08-25T01:12:52.107Z,15.75
2016-08-25T01:13:52.107Z,15.67
2016-08-25T01:14:52.103Z,15.81
2016-08-25T01:15:52.107Z,15.67
2016-08-25T01:16:52.108Z,15.66
2016-08-25T01:17:52.107Z,15.69
2016-08-25T01:18:52.124Z,15.67
2016-08-25T01:19:52.104Z,15.73
2016-08-25T01:20:52.107Z,15.62
2016-08-25T01:21:52.107Z,15.62
2016-08-25T01:22:51.408Z,15.65
2016-08-25T01:23:52.120Z,15.6
2016-08-25T01:24:52.109Z,15.57
2016-08-25T01:25:51.414Z,15.51
2016-08-25T01:26:52.128Z,15.5
2016-08-25T01:27:52.112Z,15.48
2016-08-25T01:28:52.108Z,15.52
2016-08-25T01:29:52.108Z,15.57
2016-08-25T01:30:52.125Z,15.48
2016-08-25T01:31:52.109Z,15.47
2016-08-25T01:32:52.116Z,15.5
2016-08-25T01:33:52.111Z,15.45
2016-08-25T01:34:51.417Z,15.45
2016-08-25T01:35:52.112Z,15.32
2016-08-25T01:36:52.112Z,15.36
2016-08-25T01:37:52.121Z,15.36
2016-08-25T01:38:51.408Z,15.44
2016-08-25T01:39:52.121Z,15.33
2016-08-25T01:40:52.117Z,15.33
2016-08-25T01:41:52.112Z,15.33
2016-08-25T01:42:51.410Z,15.36
2016-08-25T01:43:52.113Z,15.33
2016-08-25T01:44:50.705Z,15.35
2016-08-25T01:45:52.117Z,15.29
2016-08-25T01:46:51.412Z,15.26
2016-08-25T01:47:52.117Z,15.26
2016-08-25T01:48:51.413Z,15.19
2016-08-25T01:49:52.117Z,15.18
2016-08-25T01:50:52.117Z,15.11
2016-08-25T01:51:52.117Z,15.08
2016-08-25T01:52:52.117Z,15.15
2016-08-25T01:53:52.117Z,15.08
2016-08-25T01:54:52.118Z,15.11
2016-08-25T01:55:52.117Z,15.11
2016-08-25T01:56:52.118Z,15.15
2016-08-25T01:57:51.414Z,15.1
2016-08-25T01:58:52.118Z,15.1
2016-08-25T01:59:52.118Z,15.07
2016-08-25T02:00:52.118Z,15.04
2016-08-25T02:01:52.118Z,15.02
2016-08-25T02:02:52.117Z,15.04
2016-08-25T02:03:52.118Z,14.99
2016-08-25T02:04:51.430Z,14.97
2016-08-25T02:05:52.122Z,15.04
2016-08-25T02:06:52.122Z,15.02
2016-08-25T02:07:52.126Z,15.02
2016-08-25T02:08:52.134Z,14.93
2016-08-25T02:09:52.126Z,14.99
2016-08-25T02:10:52.123Z,14.97
2016-08-25T02:11:51.418Z,15
2016-08-25T02:12:52.123Z,15.04
2016-08-25T02:13:52.134Z,14.97
2016-08-25T02:14:51.517Z,14.96
2016-08-25T02:15:52.123Z,14.9
2016-08-25T02:16:52.123Z,14.93
2016-08-25T02:17:52.123Z,14.9
2016-08-25T02:18:52.123Z,14.92
2016-08-25T02:19:52.123Z,14.86
2016-08-25T02:20:52.123Z,14.93
2016-08-25T02:21:52.123Z,14.82
2016-08-25T02:22:52.122Z,14.78
2016-08-25T02:23:52.123Z,14.67
2016-08-25T02:24:51.419Z,14.71
2016-08-25T02:25:52.123Z,14.7
2016-08-25T02:26:52.123Z,14.78
2016-08-25T02:27:52.123Z,14.63
2016-08-25T02:28:52.127Z,14.66
2016-08-25T02:29:52.123Z,14.53
2016-08-25T02:30:52.123Z,14.59
2016-08-25T02:31:52.127Z,14.59
2016-08-25T02:32:52.135Z,14.53
2016-08-25T02:33:52.174Z,14.52
2016-08-25T02:34:52.128Z,14.52
2016-08-25T02:35:52.127Z,14.52
2016-08-25T02:36:52.127Z,14.53
2016-08-25T02:37:52.127Z,14.59
2016-08-25T02:38:52.128Z,14.53
2016-08-25T02:39:50.719Z,14.53
2016-08-25T02:40:51.424Z,14.49
2016-08-25T02:41:52.127Z,14.53
2016-08-25T02:42:52.131Z,14.59
2016-08-25T02:43:51.424Z,14.55
2016-08-25T02:44:52.127Z,14.51
2016-08-25T02:45:51.423Z,14.52
2016-08-25T02:46:51.426Z,14.49
2016-08-25T02:47:52.127Z,14.49
2016-08-25T02:48:52.127Z,14.44
2016-08-25T02:49:52.127Z,14.44
2016-08-25T02:50:52.127Z,14.37
2016-08-25T02:51:51.424Z,14.45
2016-08-25T02:52:52.128Z,14.4
2016-08-25T02:53:51.424Z,14.4
2016-08-25T02:54:52.128Z,14.38
2016-08-25T02:55:52.129Z,14.37
2016-08-25T02:56:52.128Z,14.37
2016-08-25T02:57:52.128Z,14.36
2016-08-25T02:58:52.123Z,14.3
2016-08-25T02:59:52.128Z,14.33
2016-08-25T03:00:52.128Z,14.38
2016-08-25T03:01:52.127Z,14.28
2016-08-25T03:02:52.128Z,14.38
2016-08-25T03:03:52.128Z,14.3
2016-08-25T03:04:52.128Z,14.26
2016-08-25T03:05:52.132Z,14.28
2016-08-25T03:06:52.328Z,14.31
2016-08-25T03:07:51.424Z,14.19
2016-08-25T03:08:52.129Z,14.28
2016-08-25T03:09:52.127Z,14.22
2016-08-25T03:10:51.420Z,14.28
2016-08-25T03:11:52.128Z,14.25
2016-08-25T03:12:52.131Z,14.2
2016-08-25T03:13:52.124Z,14.23
2016-08-25T03:14:52.124Z,14.26
2016-08-25T03:15:52.124Z,14.25
2016-08-25T03:16:52.129Z,14.28
2016-08-25T03:17:52.125Z,14.26
2016-08-25T03:18:52.124Z,14.19
2016-08-25T03:19:52.125Z,14.23
2016-08-25T03:20:52.125Z,14.25
2016-08-25T03:21:51.421Z,14.23
2016-08-25T03:22:52.125Z,14.18
2016-08-25T03:23:52.124Z,14.19
2016-08-25T03:24:52.124Z,14.22
2016-08-25T03:25:52.125Z,14.16
2016-08-25T03:26:52.124Z,14.19
2016-08-25T03:27:52.128Z,14.23
2016-08-25T03:28:52.124Z,14.16
2016-08-25T03:29:51.421Z,14.22
2016-08-25T03:30:52.125Z,14.16
2016-08-25T03:31:52.125Z,14.12
2016-08-25T03:32:52.124Z,14.16
2016-08-25T03:33:51.421Z,14.12
2016-08-25T03:34:52.125Z,14.07
2016-08-25T03:35:52.137Z,14.11
2016-08-25T03:36:51.425Z,14.07
2016-08-25T03:37:51.421Z,14.05
2016-08-25T03:38:51.421Z,14.12
2016-08-25T03:39:52.125Z,13.95
2016-08-25T03:40:52.125Z,14
2016-08-25T03:41:52.124Z,14
2016-08-25T03:42:52.141Z,13.98
2016-08-25T03:43:52.124Z,13.93
2016-08-25T03:44:52.125Z,13.85
2016-08-25T03:45:51.421Z,13.93
2016-08-25T03:46:52.125Z,13.8
2016-08-25T03:47:52.140Z,13.78
2016-08-25T03:48:52.125Z,13.83
2016-08-25T03:49:52.125Z,13.76
2016-08-25T03:50:52.125Z,13.79
2016-08-25T03:51:52.121Z,13.93
2016-08-25T03:52:52.125Z,13.93
2016-08-25T03:53:52.121Z,13.87
2016-08-25T03:54:51.417Z,13.85
2016-08-25T03:55:52.122Z,13.95
2016-08-25T03:56:52.132Z,13.87
2016-08-25T03:57:52.126Z,13.83
2016-08-25T03:58:52.121Z,13.82
2016-08-25T03:59:51.417Z,13.89
2016-08-25T04:00:52.121Z,13.8
2016-08-25T04:01:52.121Z,13.86
2016-08-25T04:02:52.121Z,13.91
2016-08-25T04:03:52.122Z,13.87
2016-08-25T04:04:50.714Z,13.83
2016-08-25T04:05:52.129Z,13.93
2016-08-25T04:06:51.417Z,13.78
2016-08-25T04:07:52.121Z,13.79
2016-08-25T04:08:51.418Z,13.71
2016-08-25T04:09:52.138Z,13.76
2016-08-25T04:10:52.122Z,13.76
2016-08-25T04:11:51.430Z,13.75
2016-08-25T04:12:52.117Z,13.65
2016-08-25T04:13:52.118Z,13.68
2016-08-25T04:14:52.116Z,13.61
2016-08-25T04:15:52.117Z,13.61
2016-08-25T04:16:52.126Z,13.67
2016-08-25T04:17:51.425Z,13.68
2016-08-25T04:18:52.118Z,13.62
2016-08-25T04:19:52.124Z,13.65
2016-08-25T04:20:52.117Z,13.61
2016-08-25T04:21:52.126Z,13.65
2016-08-25T04:22:51.414Z,13.7
2016-08-25T04:23:52.117Z,13.62
2016-08-25T04:24:52.118Z,13.68
2016-08-25T04:25:52.119Z,13.65
2016-08-25T04:26:52.117Z,13.58
2016-08-25T04:27:52.118Z,13.67
2016-08-25T04:28:52.118Z,13.65
2016-08-25T04:29:52.122Z,13.7
2016-08-25T04:30:52.114Z,13.7
2016-08-25T04:31:52.114Z,13.75
2016-08-25T04:32:52.118Z,13.79
2016-08-25T04:33:52.166Z,13.71
2016-08-25T04:34:52.115Z,13.76
2016-08-25T04:35:52.114Z,13.8
2016-08-25T04:36:52.115Z,13.75
2016-08-25T04:37:51.411Z,13.85
2016-08-25T04:38:52.115Z,13.8
2016-08-25T04:39:52.115Z,13.79
2016-08-25T04:40:52.114Z,13.8
2016-08-25T04:41:51.410Z,13.76
2016-08-25T04:42:52.115Z,13.82
2016-08-25T04:43:52.119Z,13.91
2016-08-25T04:44:52.115Z,13.85
2016-08-25T04:45:52.115Z,14
2016-08-25T04:46:52.119Z,14.08
2016-08-25T04:47:52.117Z,14.38
2016-08-25T04:48:52.111Z,14.37
2016-08-25T04:49:52.111Z,14.77
2016-08-25T04:50:52.111Z,14.96
2016-08-25T04:51:52.111Z,15.23
2016-08-25T04:52:52.110Z,15.6
2016-08-25T04:53:52.110Z,15.83
2016-08-25T04:54:52.110Z,16.17
2016-08-25T04:55:52.110Z,16.43
2016-08-25T04:56:52.111Z,16.62
2016-08-25T04:57:52.123Z,16.83
2016-08-25T04:58:52.111Z,17.1
2016-08-25T04:59:52.111Z,17.39
2016-08-25T05:00:52.112Z,17.65
2016-08-25T05:01:51.408Z,17.86
2016-08-25T05:02:51.407Z,18.28
2016-08-25T05:03:52.111Z,18.7
2016-08-25T05:04:52.111Z,19.04
2016-08-25T05:05:52.112Z,19.48
2016-08-25T05:06:51.407Z,19.67
2016-08-25T05:07:52.116Z,20.04
2016-08-25T05:08:50.704Z,20.3
2016-08-25T05:09:50.708Z,20.68
2016-08-25T05:10:52.118Z,21.11
2016-08-25T05:11:52.116Z,21.53
2016-08-25T05:12:52.116Z,21.91
2016-08-25T05:13:51.412Z,22.34
2016-08-25T05:14:52.116Z,22.83
2016-08-25T05:15:52.120Z,23.14
2016-08-25T05:16:52.119Z,23.49
2016-08-25T05:17:50.712Z,23.85
2016-08-25T05:18:52.124Z,24.1
2016-08-25T05:19:52.124Z,24.56
2016-08-25T05:20:51.420Z,24.62
2016-08-25T05:21:52.124Z,24.81
2016-08-25T05:22:51.424Z,24.93
2016-08-25T05:23:52.128Z,25.11
2016-08-25T05:24:51.436Z,25.29
2016-08-25T05:25:52.136Z,25.58
2016-08-25T05:26:52.132Z,25.99
2016-08-25T05:27:52.137Z,26.27
2016-08-25T05:28:52.144Z,26.73
2016-08-25T05:29:52.141Z,27.08
2016-08-25T05:30:52.141Z,27.58
2016-08-25T05:31:52.149Z,27.85
2016-08-25T05:32:52.149Z,28.13
2016-08-25T05:33:51.444Z,28.28
2016-08-25T05:34:52.148Z,28.55
2016-08-25T05:35:51.448Z,28.74
2016-08-25T05:36:52.153Z,28.93
2016-08-25T05:37:52.157Z,29.15
2016-08-25T05:38:52.156Z,29.28
2016-08-25T05:39:52.161Z,29.4
2016-08-25T05:40:52.165Z,29.73
2016-08-25T05:41:52.164Z,29.95
2016-08-25T05:42:52.169Z,30.23
2016-08-25T05:43:52.173Z,30.4
2016-08-25T05:44:52.173Z,30.69
2016-08-25T05:45:52.176Z,30.89
2016-08-25T05:46:52.181Z,31.14
2016-08-25T05:47:52.180Z,31.42
2016-08-25T05:48:52.196Z,31.81
2016-08-25T05:49:52.189Z,32.09
2016-08-25T05:50:52.193Z,32.38
2016-08-25T05:51:52.196Z,32.57
2016-08-25T05:52:52.197Z,32.81
2016-08-25T05:53:52.201Z,33.03
2016-08-25T05:54:52.204Z,33.19
2016-08-25T05:55:52.209Z,33.47
2016-08-25T05:56:52.225Z,33.69
2016-08-25T05:57:52.216Z,33.97
2016-08-25T05:58:52.221Z,34.19
2016-08-25T05:59:52.225Z,34.33
2016-08-25T06:00:52.225Z,34.5
2016-08-25T06:01:52.230Z,34.73
2016-08-25T06:02:51.530Z,34.88
2016-08-25T06:03:52.233Z,35.13
2016-08-25T06:04:52.245Z,35.31
2016-08-25T06:05:52.246Z,35.72
2016-08-25T06:06:52.249Z,36
2016-08-25T06:07:52.261Z,36.35
2016-08-25T06:08:52.262Z,36.69
2016-08-25T06:09:52.266Z,36.89
2016-08-25T06:10:52.269Z,37
2016-08-25T06:11:52.274Z,36.67
2016-08-25T06:12:52.277Z,36.16
2016-08-25T06:13:52.298Z,35.44
2016-08-25T06:14:52.285Z,34.81
2016-08-25T06:15:52.293Z,34.33
2016-08-25T06:16:52.297Z,33.82
2016-08-25T06:17:52.301Z,33.55
2016-08-25T06:18:52.305Z,33.39
2016-08-25T06:19:52.309Z,33.28
2016-08-25T06:20:52.313Z,33.42
2016-08-25T06:21:52.322Z,33.38
2016-08-25T06:22:52.325Z,33.33
2016-08-25T06:23:52.334Z,33.23
2016-08-25T06:24:52.338Z,33.26
2016-08-25T06:25:52.341Z,33.32
2016-08-25T06:26:52.346Z,33.44
2016-08-25T06:27:52.349Z,33.55
2016-08-25T06:28:52.361Z,33.69
2016-08-25T06:29:52.366Z,33.87
2016-08-25T06:30:52.370Z,33.94
2016-08-25T06:31:52.374Z,34.14
2016-08-25T06:32:52.378Z,34.24
2016-08-25T06:33:52.486Z,34.59
2016-08-25T06:34:52.390Z,34.91
2016-08-25T06:35:52.398Z,35.07
2016-08-25T06:36:52.402Z,35.16
2016-08-25T06:37:52.418Z,35.16
2016-08-25T06:38:52.419Z,35.32
2016-08-25T06:39:52.423Z,35.23
2016-08-25T06:40:52.434Z,35.23
2016-08-25T06:41:52.434Z,35.34
2016-08-25T06:42:52.446Z,35.44
2016-08-25T06:43:52.446Z,35.72
2016-08-25T06:44:52.451Z,35.97
2016-08-25T06:45:52.459Z,36.28
2016-08-25T06:46:52.458Z,36.25
2016-08-25T06:47:52.471Z,36.25
2016-08-25T06:48:52.479Z,36.36
2016-08-25T06:49:52.488Z,36.75
2016-08-25T06:50:52.499Z,36.85
2016-08-25T06:51:52.499Z,36.94
2016-08-25T06:52:52.510Z,37.04
2016-08-25T06:53:52.511Z,37.11
2016-08-25T06:54:52.519Z,37.21
2016-08-25T06:55:52.526Z,37.23
2016-08-25T06:56:52.531Z,37.54
2016-08-25T06:57:52.539Z,37.72
2016-08-25T06:58:52.547Z,38.01
2016-08-25T06:59:52.551Z,37.98
2016-08-25T07:00:52.559Z,37.98
2016-08-25T07:01:52.567Z,38.12
2016-08-25T07:02:52.574Z,38.19
2016-08-25T07:03:52.579Z,38.34
2016-08-25T07:04:52.587Z,38.56
2016-08-25T07:05:52.595Z,38.66
2016-08-25T07:06:52.611Z,39
2016-08-25T07:07:52.611Z,39.26
2016-08-25T07:08:52.618Z,39.01
2016-08-25T07:09:52.623Z,39.08
2016-08-25T07:10:52.631Z,39.23
2016-08-25T07:11:52.639Z,39.33
2016-08-25T07:12:52.648Z,39.33
2016-08-25T07:13:52.655Z,39.33
2016-08-25T07:14:52.663Z,39.41
2016-08-25T07:15:52.667Z,39.61
2016-08-25T07:16:52.679Z,39.71
2016-08-25T07:17:52.683Z,39.85
2016-08-25T07:18:52.691Z,39.94
2016-08-25T07:19:52.699Z,39.97
2016-08-25T07:20:52.707Z,40.1
2016-08-25T07:21:52.723Z,39.94
2016-08-25T07:22:52.723Z,39.78
2016-08-25T07:23:52.739Z,39.86
2016-08-25T07:24:52.752Z,40.43
2016-08-25T07:25:52.748Z,40.9
2016-08-25T07:26:52.767Z,41.24
2016-08-25T07:27:52.764Z,41.48
2016-08-25T07:28:52.776Z,41.46
2016-08-25T07:29:52.779Z,41.44
2016-08-25T07:30:52.788Z,41.15
2016-08-25T07:31:52.795Z,41.12
2016-08-25T07:32:52.803Z,41.14
2016-08-25T07:33:52.912Z,41.14
2016-08-25T07:34:52.820Z,40.95
2016-08-25T07:35:52.831Z,40.8
2016-08-25T07:36:52.836Z,40.67
2016-08-25T07:37:52.844Z,40.61
2016-08-25T07:38:52.855Z,41.04
2016-08-25T07:39:52.876Z,41.58
2016-08-25T07:40:52.876Z,41.74
2016-08-25T07:41:52.880Z,41.64
2016-08-25T07:42:52.889Z,41.44
2016-08-25T07:43:52.896Z,41.34
2016-08-25T07:44:52.905Z,41.45
2016-08-25T07:45:52.912Z,41.52
2016-08-25T07:46:52.924Z,41.46
2016-08-25T07:47:52.933Z,41.8
2016-08-25T07:48:52.940Z,41.8
2016-08-25T07:49:52.949Z,41.9
2016-08-25T07:50:52.957Z,42.02
2016-08-25T07:51:52.964Z,42.12
2016-08-25T07:52:52.973Z,42.02
2016-08-25T07:53:52.980Z,42.1
2016-08-25T07:54:52.992Z,42.56
2016-08-25T07:55:53.001Z,43.19
2016-08-25T07:56:53.017Z,43.35
2016-08-25T07:57:53.016Z,43.02
2016-08-25T07:58:53.025Z,42.8
2016-08-25T07:59:53.033Z,42.68
2016-08-25T08:00:53.045Z,42.62
2016-08-25T08:01:53.053Z,42.62
2016-08-25T08:02:53.061Z,42.46
2016-08-25T08:03:53.069Z,42.41
2016-08-25T08:04:52.373Z,42.53
2016-08-25T08:05:53.089Z,42.9
2016-08-25T08:06:52.393Z,42.82
2016-08-25T08:07:53.106Z,42.82
2016-08-25T08:08:53.121Z,42.93
2016-08-25T08:09:53.122Z,43.09
2016-08-25T08:10:53.133Z,43.27
2016-08-25T08:11:53.141Z,43.61
2016-08-25T08:12:53.150Z,43.68
2016-08-25T08:13:53.158Z,43.68
2016-08-25T08:14:53.166Z,43.56
2016-08-25T08:15:53.174Z,43.11
2016-08-25T08:16:53.190Z,42.92
2016-08-25T08:17:53.198Z,42.77
2016-08-25T08:18:53.201Z,42.84
2016-08-25T08:19:53.211Z,42.99
2016-08-25T08:20:53.218Z,43.28
2016-08-25T08:21:53.226Z,43.62
2016-08-25T08:22:53.234Z,43.92
2016-08-25T08:23:53.250Z,44.07
2016-08-25T08:24:53.250Z,44.1
2016-08-25T08:25:53.258Z,44.04
2016-08-25T08:26:53.266Z,44.35
2016-08-25T08:27:53.278Z,44.7
2016-08-25T08:28:53.286Z,44.84
2016-08-25T08:29:53.310Z,44.67
2016-08-25T08:30:53.302Z,44.25
2016-08-25T08:31:53.310Z,44.16
2016-08-25T08:32:53.319Z,44
2016-08-25T08:33:52.626Z,43.76
2016-08-25T08:34:53.346Z,43.66
2016-08-25T08:35:53.346Z,43.57
2016-08-25T08:36:53.350Z,43.68
2016-08-25T08:37:53.382Z,43.87
2016-08-25T08:38:53.383Z,44.04
2016-08-25T08:39:53.375Z,44.02
2016-08-25T08:40:53.383Z,44.04
2016-08-25T08:41:53.391Z,44.38
2016-08-25T08:42:53.399Z,44.64
2016-08-25T08:43:53.415Z,45.02
2016-08-25T08:44:53.415Z,45.26
2016-08-25T08:45:53.427Z,45.14
2016-08-25T08:46:53.437Z,45.02
2016-08-25T08:47:53.439Z,45.11
2016-08-25T08:48:53.444Z,44.99
2016-08-25T08:49:53.451Z,44.96
2016-08-25T08:50:53.460Z,44.99
2016-08-25T08:51:53.467Z,45.28
2016-08-25T08:52:53.475Z,45.71
2016-08-25T08:53:53.484Z,45.92
2016-08-25T08:54:53.496Z,46.05
2016-08-25T08:55:53.496Z,45.83
2016-08-25T08:56:53.507Z,45.85
2016-08-25T08:57:53.512Z,46
2016-08-25T08:58:53.520Z,45.85
2016-08-25T08:59:53.528Z,45.93
2016-08-25T09:00:53.539Z,46.01
2016-08-25T09:01:53.540Z,46.09
2016-08-25T09:02:53.548Z,45.92
2016-08-25T09:03:53.556Z,45.86
2016-08-25T09:04:53.560Z,46
2016-08-25T09:05:53.568Z,46.1
2016-08-25T09:06:53.576Z,46.05
2016-08-25T09:07:53.584Z,46.05
2016-08-25T09:08:53.587Z,46.08
2016-08-25T09:09:53.596Z,46.12
2016-08-25T09:10:53.603Z,46.1
2016-08-25T09:11:53.609Z,46.2
2016-08-25T09:12:53.616Z,46.13
2016-08-25T09:13:53.619Z,46.01
2016-08-25T09:14:53.632Z,45.54
2016-08-25T09:15:53.632Z,45.26
2016-08-25T09:16:52.937Z,45.24
2016-08-25T09:17:53.648Z,45.24
2016-08-25T09:18:53.652Z,45.26
2016-08-25T09:19:53.664Z,45.05
2016-08-25T09:20:53.665Z,44.86
2016-08-25T09:21:53.673Z,44.77
2016-08-25T09:22:53.677Z,44.86
2016-08-25T09:23:53.685Z,44.73
2016-08-25T09:24:53.693Z,44.57
2016-08-25T09:25:53.697Z,44.48
2016-08-25T09:26:53.712Z,44.57
2016-08-25T09:27:53.708Z,44.7
2016-08-25T09:28:53.717Z,44.79
2016-08-25T09:29:53.721Z,44.96
2016-08-25T09:30:53.725Z,45.11
2016-08-25T09:31:53.732Z,44.91
2016-08-25T09:32:53.737Z,44.68
2016-08-25T09:33:53.741Z,44.47
2016-08-25T09:34:53.755Z,43.97
2016-08-25T09:35:53.753Z,43.29
2016-08-25T09:36:53.760Z,42.4
2016-08-25T09:37:53.765Z,41.53
2016-08-25T09:38:53.777Z,40.7
2016-08-25T09:39:53.777Z,39.94
2016-08-25T09:40:53.780Z,39.11
2016-08-25T09:41:53.789Z,38.32
2016-08-25T09:42:53.793Z,37.41
2016-08-25T09:43:53.804Z,36.6
2016-08-25T09:44:53.805Z,35.93
2016-08-25T09:45:53.810Z,35.26
2016-08-25T09:46:53.813Z,34.6
2016-08-25T09:47:53.821Z,34.03
2016-08-25T09:48:53.825Z,33.53
2016-08-25T09:49:53.829Z,33.1
2016-08-25T09:50:53.837Z,32.75
2016-08-25T09:51:53.845Z,32.37
2016-08-25T09:52:53.845Z,31.9
2016-08-25T09:53:53.850Z,31.63
2016-08-25T09:54:53.857Z,31.23
2016-08-25T09:55:53.861Z,30.96
2016-08-25T09:56:53.865Z,30.73
2016-08-25T09:57:53.870Z,30.49
2016-08-25T09:59:08.073Z,30.32
2016-08-25T09:59:53.881Z,30.21
2016-08-25T10:00:53.886Z,30.08
2016-08-25T10:01:53.898Z,29.95
2016-08-25T10:02:53.894Z,29.94
2016-08-25T10:03:53.902Z,29.84
2016-08-25T10:04:53.906Z,29.68
2016-08-25T10:05:53.918Z,29.44
2016-08-25T10:06:53.914Z,29.42
2016-08-25T10:07:53.921Z,29.3
2016-08-25T10:08:53.925Z,29.34
2016-08-25T10:09:53.982Z,29.35
2016-08-25T10:10:53.934Z,29.31
2016-08-25T10:11:53.937Z,29.28
2016-08-25T10:12:53.250Z,29.2
2016-08-25T10:13:53.950Z,29.15
2016-08-25T10:14:53.954Z,29.05
2016-08-25T10:15:53.958Z,29.02
2016-08-25T10:16:53.976Z,29.02
2016-08-25T10:17:53.966Z,28.96
2016-08-25T10:18:53.971Z,28.96
2016-08-25T10:19:53.978Z,29
2016-08-25T10:20:53.986Z,29.02
2016-08-25T10:21:53.987Z,28.94
2016-08-25T10:22:53.990Z,28.94
2016-08-25T10:23:53.995Z,28.9
2016-08-25T10:24:53.999Z,29
2016-08-25T10:25:54.002Z,28.87
2016-08-25T10:26:54.010Z,28.86
2016-08-25T10:27:54.015Z,28.77
2016-08-25T10:28:54.018Z,28.87
2016-08-25T10:29:54.023Z,28.97
2016-08-25T10:30:54.042Z,28.87
2016-08-25T10:31:54.032Z,28.86
2016-08-25T10:32:54.035Z,28.84
2016-08-25T10:33:54.094Z,28.75
2016-08-25T10:34:54.043Z,28.71
2016-08-25T10:35:54.047Z,28.68
2016-08-25T10:36:54.051Z,28.53
2016-08-25T10:37:54.059Z,28.56
2016-08-25T10:38:54.063Z,28.59
2016-08-25T10:39:53.364Z,28.67
2016-08-25T10:40:54.070Z,28.6
2016-08-25T10:41:54.078Z,28.59
2016-08-25T10:42:54.080Z,28.62
2016-08-25T10:43:54.083Z,28.7
2016-08-25T10:44:54.087Z,28.71
2016-08-25T10:45:54.092Z,28.82
2016-08-25T10:46:54.094Z,28.82
2016-08-25T10:47:54.099Z,28.87
2016-08-25T10:48:54.104Z,28.77
2016-08-25T10:49:54.108Z,28.89
2016-08-25T10:50:54.112Z,28.74
2016-08-25T10:51:54.116Z,28.77
2016-08-25T10:52:54.120Z,28.72
2016-08-25T10:53:54.127Z,28.74
2016-08-25T10:54:54.131Z,28.75
2016-08-25T10:55:54.132Z,28.75
2016-08-25T10:56:54.140Z,28.84
2016-08-25T10:57:54.140Z,28.83
2016-08-25T10:58:54.147Z,28.9
2016-08-25T10:59:54.160Z,28.71
2016-08-25T11:00:54.156Z,28.75
2016-08-25T11:01:54.160Z,28.71
2016-08-25T11:02:54.164Z,28.65
2016-08-25T11:03:54.168Z,28.68
2016-08-25T11:04:54.172Z,28.71
2016-08-25T11:05:54.176Z,28.71
2016-08-25T11:06:54.180Z,28.6
2016-08-25T11:07:54.184Z,28.65
2016-08-25T11:08:54.188Z,28.55
2016-08-25T11:09:53.489Z,28.67
2016-08-25T11:10:54.196Z,28.62
2016-08-25T11:11:54.200Z,28.64
2016-08-25T11:12:54.212Z,28.47
2016-08-25T11:13:54.209Z,28.52
2016-08-25T11:14:54.224Z,28.47
2016-08-25T11:15:54.216Z,28.47
2016-08-25T11:16:54.221Z,28.53
2016-08-25T11:17:54.232Z,28.49
2016-08-25T11:18:54.223Z,28.45
2016-08-25T11:19:54.228Z,28.5
2016-08-25T11:20:54.233Z,28.59
2016-08-25T11:21:54.240Z,28.59
2016-08-25T11:22:54.245Z,28.62
2016-08-25T11:23:54.245Z,28.56
2016-08-25T11:24:54.250Z,28.62
2016-08-25T11:25:54.253Z,28.56
2016-08-25T11:26:54.257Z,28.53
2016-08-25T11:27:54.265Z,28.49
2016-08-25T11:28:54.264Z,28.5
2016-08-25T11:29:54.269Z,28.45
2016-08-25T11:30:54.273Z,28.5
2016-08-25T11:31:54.276Z,28.59
2016-08-25T11:32:54.281Z,28.64
2016-08-25T11:33:54.285Z,28.62
2016-08-25T11:34:54.284Z,28.6
2016-08-25T11:35:54.301Z,28.5
2016-08-25T11:36:54.297Z,28.65
2016-08-25T11:37:54.301Z,28.45
2016-08-25T11:38:54.305Z,28.46
2016-08-25T11:39:54.313Z,28.37
2016-08-25T11:40:54.321Z,28.34
2016-08-25T11:41:54.329Z,28.35
2016-08-25T11:42:54.322Z,28.28
2016-08-25T11:43:54.331Z,28.37
2016-08-25T11:45:54.341Z,28.46
2016-08-25T11:46:54.333Z,28.46
2016-08-25T11:47:54.342Z,28.5
2016-08-25T11:48:54.341Z,28.56
2016-08-25T11:49:54.346Z,28.5
2016-08-25T11:50:54.353Z,28.56
2016-08-25T11:51:54.353Z,28.64
2016-08-25T11:52:54.362Z,28.57
2016-08-25T11:53:54.370Z,28.59
2016-08-25T11:54:54.361Z,28.52
2016-08-25T11:55:54.369Z,28.59
2016-08-25T11:56:54.390Z,28.68
2016-08-25T11:57:54.381Z,28.62
2016-08-25T11:58:54.382Z,28.72
2016-08-25T11:59:54.386Z,28.71
2016-08-25T12:00:54.386Z,28.72
2016-08-25T12:01:54.390Z,28.77
2016-08-25T12:02:54.401Z,28.7
2016-08-25T12:03:54.406Z,28.77
2016-08-25T12:04:54.402Z,28.72
2016-08-25T12:05:54.406Z,28.67
2016-08-25T12:06:54.410Z,28.72
2016-08-25T12:07:54.426Z,28.75
2016-08-25T12:08:54.418Z,28.8
2016-08-25T12:09:54.422Z,28.8
2016-08-25T12:10:54.422Z,28.82
2016-08-25T12:11:54.426Z,28.83
2016-08-25T12:12:54.430Z,28.87
2016-08-25T12:13:54.439Z,28.9
2016-08-25T12:14:54.446Z,28.87
2016-08-25T12:15:54.442Z,28.89
2016-08-25T12:16:54.445Z,28.9
2016-08-25T12:17:54.450Z,28.86
2016-08-25T12:18:54.454Z,28.71
2016-08-25T12:19:54.458Z,28.72
2016-08-25T12:20:54.462Z,28.77
2016-08-25T12:21:54.462Z,28.7
2016-08-25T12:22:54.466Z,28.68
2016-08-25T12:23:54.478Z,28.6
2016-08-25T12:24:54.473Z,28.72
2016-08-25T12:25:54.478Z,28.72
2016-08-25T12:26:54.482Z,28.74
2016-08-25T12:27:54.487Z,28.74
2016-08-25T12:28:54.495Z,28.74
2016-08-25T12:29:54.491Z,28.74
2016-08-25T12:30:54.503Z,28.75
2016-08-25T12:31:54.503Z,28.75
2016-08-25T12:32:54.501Z,28.78
2016-08-25T12:33:54.511Z,28.84
2016-08-25T12:34:54.510Z,28.74
2016-08-25T12:35:54.514Z,28.75
2016-08-25T12:36:54.515Z,28.74
2016-08-25T12:37:54.518Z,28.7
2016-08-25T12:38:54.522Z,28.62
2016-08-25T12:39:54.526Z,28.64
2016-08-25T12:40:54.531Z,28.6
2016-08-25T12:41:54.534Z,28.67
2016-08-25T12:42:53.835Z,28.59
2016-08-25T12:43:54.542Z,28.65
2016-08-25T12:44:54.547Z,28.71
2016-08-25T12:45:54.547Z,28.65
2016-08-25T12:46:54.550Z,28.77
2016-08-25T12:47:54.555Z,28.71
2016-08-25T12:48:54.559Z,28.83
2016-08-25T12:49:54.562Z,28.89
2016-08-25T12:50:54.567Z,28.84
2016-08-25T12:51:54.571Z,28.77
2016-08-25T12:52:54.571Z,28.74
2016-08-25T12:53:54.574Z,28.7
2016-08-25T12:54:54.579Z,28.71
2016-08-25T12:55:54.583Z,28.75
2016-08-25T12:56:54.599Z,28.8
2016-08-25T12:57:54.591Z,28.75